sensor_id;sensor_type;location;lat;lon;timestamp;pressure;altitude;pressure_sealevel;temperature;humidity
54870;BME280;40756;-37.950;145.008;2023-03-11T00:01:13;101141.58;;;22.68;39.35
54870;BME280;40756;-37.950;145.008;2023-03-11T00:03:43;101143.31;;;22.81;39.08
54870;BME280;40756;-37.950;145.008;2023-03-11T00:06:12;101145.59;;;23.14;38.56
54870;BME280;40756;-37.950;145.008;2023-03-11T00:08:42;101146.38;;;22.79;39.06
54870;BME280;40756;-37.950;145.008;2023-03-11T00:11:12;101144.79;;;22.92;38.42
54870;BME280;40756;-37.950;145.008;2023-03-11T00:13:41;101147.58;;;23.58;37.30
54870;BME280;40756;-37.950;145.008;2023-03-11T00:16:11;101145.26;;;22.99;38.28
54870;BME280;40756;-37.950;145.008;2023-03-11T00:18:40;101145.22;;;22.91;38.48
54870;BME280;40756;-37.950;145.008;2023-03-11T00:21:15;101143.29;;;22.55;39.31
54870;BME280;40756;-37.950;145.008;2023-03-11T00:23:45;101154.07;;;20.77;43.25
54870;BME280;40756;-37.950;145.008;2023-03-11T00:26:15;101146.29;;;22.31;41.49
54870;BME280;40756;-37.950;145.008;2023-03-11T00:28:44;101150.87;;;20.95;44.87
54870;BME280;40756;-37.950;145.008;2023-03-11T00:31:14;101152.08;;;21.35;44.44
54870;BME280;40756;-37.950;145.008;2023-03-11T00:33:43;101150.54;;;19.94;47.04
54870;BME280;40756;-37.950;145.008;2023-03-11T00:36:22;101146.05;;;20.58;46.15
54870;BME280;40756;-37.950;145.008;2023-03-11T00:38:53;101150.21;;;19.86;46.40
54870;BME280;40756;-37.950;145.008;2023-03-11T00:41:22;101149.15;;;20.78;46.11
54870;BME280;40756;-37.950;145.008;2023-03-11T00:43:52;101152.31;;;19.67;48.32
54870;BME280;40756;-37.950;145.008;2023-03-11T00:46:21;101151.04;;;20.17;47.84
54870;BME280;40756;-37.950;145.008;2023-03-11T00:48:51;101152.13;;;20.21;47.72
54870;BME280;40756;-37.950;145.008;2023-03-11T00:51:21;101152.31;;;20.01;47.96
54870;BME280;40756;-37.950;145.008;2023-03-11T00:53:50;101155.83;;;20.10;47.47
54870;BME280;40756;-37.950;145.008;2023-03-11T00:56:19;101151.67;;;18.78;50.13
54870;BME280;40756;-37.950;145.008;2023-03-11T00:58:49;101151.82;;;18.93;49.40
54870;BME280;40756;-37.950;145.008;2023-03-11T01:01:19;101152.05;;;18.98;50.55
54870;BME280;40756;-37.950;145.008;2023-03-11T01:03:49;101146.09;;;20.20;48.82
54870;BME280;40756;-37.950;145.008;2023-03-11T01:06:18;101143.12;;;20.00;48.78
54870;BME280;40756;-37.950;145.008;2023-03-11T01:08:48;101143.03;;;19.60;49.76
54870;BME280;40756;-37.950;145.008;2023-03-11T01:11:17;101142.14;;;20.48;48.46
54870;BME280;40756;-37.950;145.008;2023-03-11T01:13:47;101140.41;;;19.18;49.74
54870;BME280;40756;-37.950;145.008;2023-03-11T01:16:16;101132.66;;;21.06;47.38
54870;BME280;40756;-37.950;145.008;2023-03-11T01:18:46;101130.78;;;20.56;47.54
54870;BME280;40756;-37.950;145.008;2023-03-11T01:21:15;101131.44;;;20.75;47.05
54870;BME280;40756;-37.950;145.008;2023-03-11T01:23:45;101132.53;;;20.26;47.80
54870;BME280;40756;-37.950;145.008;2023-03-11T01:26:15;101129.84;;;20.77;47.82
54870;BME280;40756;-37.950;145.008;2023-03-11T01:28:44;101129.37;;;21.54;45.75
54870;BME280;40756;-37.950;145.008;2023-03-11T01:31:14;101127.71;;;19.57;48.54
54870;BME280;40756;-37.950;145.008;2023-03-11T01:33:43;101124.11;;;20.72;46.23
54870;BME280;40756;-37.950;145.008;2023-03-11T01:36:13;101116.93;;;20.38;46.92
54870;BME280;40756;-37.950;145.008;2023-03-11T01:38:42;101118.61;;;21.06;45.73
54870;BME280;40756;-37.950;145.008;2023-03-11T01:41:12;101113.56;;;20.60;46.41
54870;BME280;40756;-37.950;145.008;2023-03-11T01:43:49;101109.64;;;20.67;45.86
54870;BME280;40756;-37.950;145.008;2023-03-11T01:46:21;101107.80;;;20.22;46.88
54870;BME280;40756;-37.950;145.008;2023-03-11T01:48:54;101103.05;;;22.16;43.88
54870;BME280;40756;-37.950;145.008;2023-03-11T01:51:27;101100.93;;;21.60;43.16
54870;BME280;40756;-37.950;145.008;2023-03-11T01:54:01;101097.37;;;20.76;43.97
54870;BME280;40756;-37.950;145.008;2023-03-11T01:56:32;101089.62;;;21.83;43.25
54870;BME280;40756;-37.950;145.008;2023-03-11T01:59:03;101082.47;;;21.87;42.67
54870;BME280;40756;-37.950;145.008;2023-03-11T02:01:33;101075.77;;;21.98;41.92
54870;BME280;40756;-37.950;145.008;2023-03-11T02:04:04;101072.02;;;22.12;42.03
54870;BME280;40756;-37.950;145.008;2023-03-11T02:06:33;101070.09;;;22.50;42.01
54870;BME280;40756;-37.950;145.008;2023-03-11T02:09:03;101069.54;;;22.91;42.35
54870;BME280;40756;-37.950;145.008;2023-03-11T02:11:33;101065.41;;;22.22;42.46
54870;BME280;40756;-37.950;145.008;2023-03-11T02:14:05;101065.47;;;22.81;41.15
54870;BME280;40756;-37.950;145.008;2023-03-11T02:16:36;101060.81;;;23.09;39.93
54870;BME280;40756;-37.950;145.008;2023-03-11T02:19:11;101055.70;;;23.48;39.15
54870;BME280;40756;-37.950;145.008;2023-03-11T02:21:45;101052.76;;;23.33;38.91
54870;BME280;40756;-37.950;145.008;2023-03-11T02:24:19;101046.34;;;22.74;39.38
54870;BME280;40756;-37.950;145.008;2023-03-11T02:26:54;101038.34;;;24.05;38.20
54870;BME280;40756;-37.950;145.008;2023-03-11T02:29:25;101037.31;;;23.91;37.13
54870;BME280;40756;-37.950;145.008;2023-03-11T02:31:56;101036.47;;;23.10;37.72
54870;BME280;40756;-37.950;145.008;2023-03-11T02:34:30;101028.62;;;23.23;37.45
54870;BME280;40756;-37.950;145.008;2023-03-11T02:37:02;101032.59;;;22.92;37.93
54870;BME280;40756;-37.950;145.008;2023-03-11T02:39:34;101026.61;;;23.96;36.09
54870;BME280;40756;-37.950;145.008;2023-03-11T02:42:07;101025.88;;;23.88;36.38
54870;BME280;40756;-37.950;145.008;2023-03-11T02:44:37;101020.50;;;24.12;36.27
54870;BME280;40756;-37.950;145.008;2023-03-11T02:47:08;101021.45;;;23.43;36.07
54870;BME280;40756;-37.950;145.008;2023-03-11T02:49:38;101018.90;;;24.26;35.39
54870;BME280;40756;-37.950;145.008;2023-03-11T02:52:08;101017.44;;;24.62;35.30
54870;BME280;40756;-37.950;145.008;2023-03-11T02:54:38;101015.91;;;25.40;34.57
54870;BME280;40756;-37.950;145.008;2023-03-11T02:57:07;101014.78;;;25.36;34.23
54870;BME280;40756;-37.950;145.008;2023-03-11T02:59:36;101018.00;;;24.61;35.02
54870;BME280;40756;-37.950;145.008;2023-03-11T03:02:05;101009.69;;;25.03;34.13
54870;BME280;40756;-37.950;145.008;2023-03-11T03:04:35;101005.11;;;26.45;32.25
54870;BME280;40756;-37.950;145.008;2023-03-11T03:07:04;101003.46;;;25.87;31.76
54870;BME280;40756;-37.950;145.008;2023-03-11T03:09:34;101006.24;;;24.98;31.58
54870;BME280;40756;-37.950;145.008;2023-03-11T03:12:03;100997.67;;;25.41;32.38
54870;BME280;40756;-37.950;145.008;2023-03-11T03:14:33;100993.10;;;25.61;31.97
54870;BME280;40756;-37.950;145.008;2023-03-11T03:17:02;100997.78;;;25.24;31.42
54870;BME280;40756;-37.950;145.008;2023-03-11T03:19:31;100991.86;;;26.43;30.22
54870;BME280;40756;-37.950;145.008;2023-03-11T03:22:01;100986.59;;;26.47;30.56
54870;BME280;40756;-37.950;145.008;2023-03-11T03:24:31;100985.23;;;25.48;31.18
54870;BME280;40756;-37.950;145.008;2023-03-11T03:27:01;100987.84;;;25.15;30.62
54870;BME280;40756;-37.950;145.008;2023-03-11T03:29:30;100987.00;;;26.51;30.23
54870;BME280;40756;-37.950;145.008;2023-03-11T03:32:00;100982.90;;;25.93;30.24
54870;BME280;40756;-37.950;145.008;2023-03-11T03:34:29;100978.53;;;25.92;30.78
54870;BME280;40756;-37.950;145.008;2023-03-11T03:36:58;100977.04;;;26.34;31.26
54870;BME280;40756;-37.950;145.008;2023-03-11T03:39:28;100975.11;;;25.98;31.72
54870;BME280;40756;-37.950;145.008;2023-03-11T03:41:57;100975.96;;;25.52;31.25
54870;BME280;40756;-37.950;145.008;2023-03-11T03:44:26;100974.38;;;26.04;30.95
54870;BME280;40756;-37.950;145.008;2023-03-11T03:46:56;100974.32;;;27.23;29.77
54870;BME280;40756;-37.950;145.008;2023-03-11T03:49:26;100972.22;;;26.84;29.04
54870;BME280;40756;-37.950;145.008;2023-03-11T03:51:56;100968.42;;;27.44;29.53
54870;BME280;40756;-37.950;145.008;2023-03-11T03:54:25;100969.41;;;26.90;30.26
54870;BME280;40756;-37.950;145.008;2023-03-11T03:56:54;100968.90;;;27.40;29.84
54870;BME280;40756;-37.950;145.008;2023-03-11T03:59:24;100968.07;;;26.81;29.92
54870;BME280;40756;-37.950;145.008;2023-03-11T04:01:54;100963.66;;;27.06;28.97
54870;BME280;40756;-37.950;145.008;2023-03-11T04:04:23;100967.49;;;27.41;28.98
54870;BME280;40756;-37.950;145.008;2023-03-11T04:06:52;100960.55;;;26.72;28.34
54870;BME280;40756;-37.950;145.008;2023-03-11T04:09:22;100956.68;;;26.57;28.70
54870;BME280;40756;-37.950;145.008;2023-03-11T04:11:51;100953.17;;;26.39;29.00
54870;BME280;40756;-37.950;145.008;2023-03-11T04:14:20;100952.35;;;26.99;28.71
54870;BME280;40756;-37.950;145.008;2023-03-11T04:16:50;100946.73;;;27.24;27.84
54870;BME280;40756;-37.950;145.008;2023-03-11T04:19:19;100943.64;;;27.18;27.85
54870;BME280;40756;-37.950;145.008;2023-03-11T04:21:49;100942.38;;;27.33;28.59
54870;BME280;40756;-37.950;145.008;2023-03-11T04:24:18;100938.78;;;27.38;28.99
54870;BME280;40756;-37.950;145.008;2023-03-11T04:26:47;100941.44;;;27.11;27.74
54870;BME280;40756;-37.950;145.008;2023-03-11T04:29:17;100937.96;;;27.08;28.33
54870;BME280;40756;-37.950;145.008;2023-03-11T04:31:47;100933.87;;;27.79;27.25
54870;BME280;40756;-37.950;145.008;2023-03-11T04:34:16;100931.72;;;27.27;28.67
54870;BME280;40756;-37.950;145.008;2023-03-11T04:36:45;100934.99;;;28.11;27.67
54870;BME280;40756;-37.950;145.008;2023-03-11T04:39:15;100935.01;;;26.42;28.51
54870;BME280;40756;-37.950;145.008;2023-03-11T04:41:45;100930.14;;;26.23;28.71
54870;BME280;40756;-37.950;145.008;2023-03-11T04:44:14;100928.76;;;27.15;28.43
54870;BME280;40756;-37.950;145.008;2023-03-11T04:46:43;100926.77;;;28.40;27.21
54870;BME280;40756;-37.950;145.008;2023-03-11T04:49:13;100927.46;;;28.36;26.58
54870;BME280;40756;-37.950;145.008;2023-03-11T04:51:42;100926.90;;;28.08;25.99
54870;BME280;40756;-37.950;145.008;2023-03-11T04:54:12;100927.50;;;27.59;25.67
54870;BME280;40756;-37.950;145.008;2023-03-11T04:56:41;100922.74;;;27.41;26.52
54870;BME280;40756;-37.950;145.008;2023-03-11T04:59:10;100918.72;;;27.84;26.01
54870;BME280;40756;-37.950;145.008;2023-03-11T05:01:40;100917.69;;;27.12;26.90
54870;BME280;40756;-37.950;145.008;2023-03-11T05:04:09;100913.58;;;26.10;27.36
54870;BME280;40756;-37.950;145.008;2023-03-11T05:06:38;100907.36;;;26.91;27.18
54870;BME280;40756;-37.950;145.008;2023-03-11T05:09:08;100900.23;;;27.08;27.62
54870;BME280;40756;-37.950;145.008;2023-03-11T05:11:37;100903.56;;;27.19;28.53
54870;BME280;40756;-37.950;145.008;2023-03-11T05:14:06;100905.96;;;27.17;28.72
54870;BME280;40756;-37.950;145.008;2023-03-11T05:16:36;100908.20;;;26.09;29.43
54870;BME280;40756;-37.950;145.008;2023-03-11T05:19:05;100911.41;;;27.30;28.48
54870;BME280;40756;-37.950;145.008;2023-03-11T05:21:34;100911.11;;;26.98;28.32
54870;BME280;40756;-37.950;145.008;2023-03-11T05:24:04;100913.77;;;27.02;28.72
54870;BME280;40756;-37.950;145.008;2023-03-11T05:26:33;100914.39;;;27.63;28.58
54870;BME280;40756;-37.950;145.008;2023-03-11T05:29:02;100914.29;;;26.86;28.86
54870;BME280;40756;-37.950;145.008;2023-03-11T05:31:32;100916.64;;;26.61;31.73
54870;BME280;40756;-37.950;145.008;2023-03-11T05:34:02;100912.24;;;25.79;32.61
54870;BME280;40756;-37.950;145.008;2023-03-11T05:36:31;100912.47;;;25.08;35.06
54870;BME280;40756;-37.950;145.008;2023-03-11T05:39:00;100914.11;;;25.56;34.36
54870;BME280;40756;-37.950;145.008;2023-03-11T05:41:30;100913.56;;;25.30;35.58
54870;BME280;40756;-37.950;145.008;2023-03-11T05:43:59;100914.51;;;24.76;36.48
54870;BME280;40756;-37.950;145.008;2023-03-11T05:46:29;100911.96;;;25.47;36.29
54870;BME280;40756;-37.950;145.008;2023-03-11T05:49:00;100913.00;;;24.79;37.34
54870;BME280;40756;-37.950;145.008;2023-03-11T05:51:30;100906.18;;;25.08;37.23
54870;BME280;40756;-37.950;145.008;2023-03-11T05:53:59;100904.86;;;25.39;37.63
54870;BME280;40756;-37.950;145.008;2023-03-11T05:56:28;100902.24;;;25.71;36.62
54870;BME280;40756;-37.950;145.008;2023-03-11T05:58:58;100904.39;;;25.39;37.30
54870;BME280;40756;-37.950;145.008;2023-03-11T06:01:27;100911.74;;;25.41;36.81
54870;BME280;40756;-37.950;145.008;2023-03-11T06:03:56;100909.22;;;25.00;37.87
54870;BME280;40756;-37.950;145.008;2023-03-11T06:06:26;100907.75;;;24.50;38.41
54870;BME280;40756;-37.950;145.008;2023-03-11T06:08:56;100907.16;;;24.41;38.74
54870;BME280;40756;-37.950;145.008;2023-03-11T06:11:26;100907.03;;;24.96;38.87
54870;BME280;40756;-37.950;145.008;2023-03-11T06:13:57;100906.84;;;23.76;40.03
54870;BME280;40756;-37.950;145.008;2023-03-11T06:16:26;100901.83;;;24.70;38.27
54870;BME280;40756;-37.950;145.008;2023-03-11T06:18:56;100895.52;;;25.45;37.86
54870;BME280;40756;-37.950;145.008;2023-03-11T06:21:25;100906.00;;;24.53;39.11
54870;BME280;40756;-37.950;145.008;2023-03-11T06:23:55;100909.81;;;23.56;40.18
54870;BME280;40756;-37.950;145.008;2023-03-11T06:26:24;100907.36;;;23.65;40.37
54870;BME280;40756;-37.950;145.008;2023-03-11T06:28:54;100914.12;;;22.64;42.45
54870;BME280;40756;-37.950;145.008;2023-03-11T06:31:25;100915.40;;;22.87;41.37
54870;BME280;40756;-37.950;145.008;2023-03-11T06:33:56;100915.91;;;23.71;40.37
54870;BME280;40756;-37.950;145.008;2023-03-11T06:36:26;100911.66;;;22.79;41.66
54870;BME280;40756;-37.950;145.008;2023-03-11T06:38:56;100915.15;;;23.12;40.89
54870;BME280;40756;-37.950;145.008;2023-03-11T06:41:26;100913.42;;;23.21;41.18
54870;BME280;40756;-37.950;145.008;2023-03-11T06:43:56;100921.40;;;22.46;42.96
54870;BME280;40756;-37.950;145.008;2023-03-11T06:46:26;100923.18;;;21.28;43.84
54870;BME280;40756;-37.950;145.008;2023-03-11T06:48:56;100920.81;;;21.62;44.43
54870;BME280;40756;-37.950;145.008;2023-03-11T06:51:25;100916.07;;;22.60;42.17
54870;BME280;40756;-37.950;145.008;2023-03-11T06:53:54;100920.98;;;22.00;42.62
54870;BME280;40756;-37.950;145.008;2023-03-11T06:56:24;100923.77;;;22.37;42.36
54870;BME280;40756;-37.950;145.008;2023-03-11T06:58:54;100924.45;;;21.43;43.58
54870;BME280;40756;-37.950;145.008;2023-03-11T07:01:25;100922.79;;;21.78;42.42
54870;BME280;40756;-37.950;145.008;2023-03-11T07:03:55;100921.93;;;21.56;42.86
54870;BME280;40756;-37.950;145.008;2023-03-11T07:06:26;100921.40;;;22.26;42.00
54870;BME280;40756;-37.950;145.008;2023-03-11T07:08:55;100923.06;;;21.66;42.30
54870;BME280;40756;-37.950;145.008;2023-03-11T07:11:26;100925.55;;;20.77;43.56
54870;BME280;40756;-37.950;145.008;2023-03-11T07:13:56;100921.72;;;21.09;43.31
54870;BME280;40756;-37.950;145.008;2023-03-11T07:16:27;100922.72;;;21.33;43.34
54870;BME280;40756;-37.950;145.008;2023-03-11T07:18:58;100926.72;;;20.87;44.79
54870;BME280;40756;-37.950;145.008;2023-03-11T07:21:30;100930.02;;;22.06;43.42
54870;BME280;40756;-37.950;145.008;2023-03-11T07:24:01;100932.45;;;20.90;44.83
54870;BME280;40756;-37.950;145.008;2023-03-11T07:26:32;100937.56;;;21.13;45.50
54870;BME280;40756;-37.950;145.008;2023-03-11T07:29:02;100940.33;;;21.21;45.74
54870;BME280;40756;-37.950;145.008;2023-03-11T07:31:33;100940.76;;;21.98;44.58
54870;BME280;40756;-37.950;145.008;2023-03-11T07:34:05;100946.82;;;20.88;45.61
54870;BME280;40756;-37.950;145.008;2023-03-11T07:36:35;100945.97;;;20.51;46.00
54870;BME280;40756;-37.950;145.008;2023-03-11T07:39:05;100944.37;;;21.11;44.82
54870;BME280;40756;-37.950;145.008;2023-03-11T07:41:35;100945.43;;;20.57;45.66
54870;BME280;40756;-37.950;145.008;2023-03-11T07:44:05;100945.02;;;20.83;44.87
54870;BME280;40756;-37.950;145.008;2023-03-11T07:46:34;100947.78;;;20.87;44.96
54870;BME280;40756;-37.950;145.008;2023-03-11T07:49:04;100955.11;;;20.51;45.00
54870;BME280;40756;-37.950;145.008;2023-03-11T07:51:35;100955.54;;;20.11;44.89
54870;BME280;40756;-37.950;145.008;2023-03-11T07:54:05;100955.08;;;20.92;43.77
54870;BME280;40756;-37.950;145.008;2023-03-11T07:56:35;100957.06;;;20.89;43.28
54870;BME280;40756;-37.950;145.008;2023-03-11T07:59:05;100963.08;;;20.51;43.23
54870;BME280;40756;-37.950;145.008;2023-03-11T08:01:34;100975.50;;;20.27;43.13
54870;BME280;40756;-37.950;145.008;2023-03-11T08:04:05;100977.46;;;20.19;44.12
54870;BME280;40756;-37.950;145.008;2023-03-11T08:06:37;100973.81;;;20.93;42.76
54870;BME280;40756;-37.950;145.008;2023-03-11T08:09:08;100975.32;;;20.65;43.56
54870;BME280;40756;-37.950;145.008;2023-03-11T08:11:38;100976.01;;;20.54;44.43
54870;BME280;40756;-37.950;145.008;2023-03-11T08:14:07;100979.91;;;20.37;44.56
54870;BME280;40756;-37.950;145.008;2023-03-11T08:16:37;100986.64;;;20.39;43.81
54870;BME280;40756;-37.950;145.008;2023-03-11T08:19:09;100989.31;;;19.82;45.35
54870;BME280;40756;-37.950;145.008;2023-03-11T08:21:39;100991.60;;;20.33;44.24
54870;BME280;40756;-37.950;145.008;2023-03-11T08:24:11;100995.28;;;19.38;45.86
54870;BME280;40756;-37.950;145.008;2023-03-11T08:26:42;100994.56;;;19.31;46.40
54870;BME280;40756;-37.950;145.008;2023-03-11T08:29:12;100994.40;;;19.47;46.07
54870;BME280;40756;-37.950;145.008;2023-03-11T08:31:41;100997.74;;;18.84;47.23
54870;BME280;40756;-37.950;145.008;2023-03-11T08:34:12;101001.68;;;19.04;47.21
54870;BME280;40756;-37.950;145.008;2023-03-11T08:36:42;101006.70;;;19.26;46.86
54870;BME280;40756;-37.950;145.008;2023-03-11T08:39:12;101007.53;;;18.80;47.98
54870;BME280;40756;-37.950;145.008;2023-03-11T08:41:41;101010.92;;;18.80;47.65
54870;BME280;40756;-37.950;145.008;2023-03-11T08:44:11;101010.41;;;19.36;46.97
54870;BME280;40756;-37.950;145.008;2023-03-11T08:46:40;101018.99;;;18.80;47.41
54870;BME280;40756;-37.950;145.008;2023-03-11T08:49:10;101014.55;;;19.28;47.34
54870;BME280;40756;-37.950;145.008;2023-03-11T08:51:40;101019.33;;;19.17;47.82
54870;BME280;40756;-37.950;145.008;2023-03-11T08:54:09;101020.44;;;19.67;46.83
54870;BME280;40756;-37.950;145.008;2023-03-11T08:56:39;101027.60;;;18.86;47.84
54870;BME280;40756;-37.950;145.008;2023-03-11T08:59:08;101034.36;;;19.50;47.19
54870;BME280;40756;-37.950;145.008;2023-03-11T09:01:38;101034.53;;;18.35;49.07
54870;BME280;40756;-37.950;145.008;2023-03-11T09:04:09;101039.46;;;18.97;48.26
54870;BME280;40756;-37.950;145.008;2023-03-11T09:06:42;101041.93;;;19.10;47.51
54870;BME280;40756;-37.950;145.008;2023-03-11T09:09:11;101045.39;;;19.06;46.72
54870;BME280;40756;-37.950;145.008;2023-03-11T09:11:41;101044.95;;;18.32;46.77
54870;BME280;40756;-37.950;145.008;2023-03-11T09:14:10;101048.91;;;18.85;46.38
54870;BME280;40756;-37.950;145.008;2023-03-11T09:16:40;101053.40;;;19.00;46.91
54870;BME280;40756;-37.950;145.008;2023-03-11T09:19:09;101055.52;;;18.73;47.41
54870;BME280;40756;-37.950;145.008;2023-03-11T09:21:39;101056.27;;;19.28;46.24
54870;BME280;40756;-37.950;145.008;2023-03-11T09:24:08;101062.17;;;18.60;46.96
54870;BME280;40756;-37.950;145.008;2023-03-11T09:26:38;101065.69;;;18.71;47.42
54870;BME280;40756;-37.950;145.008;2023-03-11T09:29:07;101069.68;;;18.06;48.69
54870;BME280;40756;-37.950;145.008;2023-03-11T09:31:37;101070.57;;;18.62;48.32
54870;BME280;40756;-37.950;145.008;2023-03-11T09:34:06;101074.78;;;18.41;48.72
54870;BME280;40756;-37.950;145.008;2023-03-11T09:36:39;101077.85;;;18.30;48.73
54870;BME280;40756;-37.950;145.008;2023-03-11T09:39:08;101081.97;;;17.95;49.17
54870;BME280;40756;-37.950;145.008;2023-03-11T09:41:44;101088.16;;;18.27;48.69
54870;BME280;40756;-37.950;145.008;2023-03-11T09:44:19;101093.65;;;18.18;47.82
54870;BME280;40756;-37.950;145.008;2023-03-11T09:47:13;101098.20;;;18.38;47.12
54870;BME280;40756;-37.950;145.008;2023-03-11T09:49:57;101108.01;;;17.90;47.82
54870;BME280;40756;-37.950;145.008;2023-03-11T09:52:34;101111.76;;;18.17;47.44
54870;BME280;40756;-37.950;145.008;2023-03-11T09:55:10;101120.11;;;17.62;47.91
54870;BME280;40756;-37.950;145.008;2023-03-11T09:57:41;101132.02;;;17.73;48.12
54870;BME280;40756;-37.950;145.008;2023-03-11T10:00:12;101133.83;;;17.88;47.61
54870;BME280;40756;-37.950;145.008;2023-03-11T10:02:46;101138.51;;;17.94;48.04
54870;BME280;40756;-37.950;145.008;2023-03-11T10:05:22;101139.57;;;18.03;47.55
54870;BME280;40756;-37.950;145.008;2023-03-11T10:07:56;101142.71;;;18.43;47.33
54870;BME280;40756;-37.950;145.008;2023-03-11T10:10:32;101148.20;;;18.45;47.07
54870;BME280;40756;-37.950;145.008;2023-03-11T10:13:11;101150.14;;;18.63;47.32
54870;BME280;40756;-37.950;145.008;2023-03-11T10:15:48;101154.55;;;18.06;47.73
54870;BME280;40756;-37.950;145.008;2023-03-11T10:18:32;101158.11;;;18.73;46.84
54870;BME280;40756;-37.950;145.008;2023-03-11T10:21:12;101162.89;;;18.61;46.63
54870;BME280;40756;-37.950;145.008;2023-03-11T10:23:55;101171.16;;;18.58;46.26
54870;BME280;40756;-37.950;145.008;2023-03-11T10:26:33;101176.37;;;18.47;45.92
54870;BME280;40756;-37.950;145.008;2023-03-11T10:29:12;101180.80;;;18.34;46.16
54870;BME280;40756;-37.950;145.008;2023-03-11T10:31:47;101185.92;;;18.18;46.61
54870;BME280;40756;-37.950;145.008;2023-03-11T10:34:22;101188.45;;;18.65;45.66
54870;BME280;40756;-37.950;145.008;2023-03-11T10:36:59;101187.16;;;18.77;45.77
54870;BME280;40756;-37.950;145.008;2023-03-11T10:39:32;101188.96;;;18.09;47.17
54870;BME280;40756;-37.950;145.008;2023-03-11T10:42:04;101190.89;;;18.62;46.27
54870;BME280;40756;-37.950;145.008;2023-03-11T10:44:36;101190.14;;;18.64;46.52
54870;BME280;40756;-37.950;145.008;2023-03-11T10:47:10;101192.26;;;18.50;46.02
54870;BME280;40756;-37.950;145.008;2023-03-11T10:49:42;101193.61;;;18.39;46.69
54870;BME280;40756;-37.950;145.008;2023-03-11T10:52:12;101189.84;;;18.78;46.08
54870;BME280;40756;-37.950;145.008;2023-03-11T10:54:44;101190.13;;;18.39;46.21
54870;BME280;40756;-37.950;145.008;2023-03-11T10:57:24;101193.62;;;17.89;47.18
54870;BME280;40756;-37.950;145.008;2023-03-11T10:59:55;101200.09;;;17.97;47.61
54870;BME280;40756;-37.950;145.008;2023-03-11T11:02:27;101195.80;;;18.35;47.03
54870;BME280;40756;-37.950;145.008;2023-03-11T11:08:03;101197.55;;;18.19;46.62
54870;BME280;40756;-37.950;145.008;2023-03-11T11:10:34;101203.54;;;18.60;46.38
54870;BME280;40756;-37.950;145.008;2023-03-11T11:13:18;101205.27;;;17.54;47.55
54870;BME280;40756;-37.950;145.008;2023-03-11T11:15:58;101209.63;;;17.82;47.39
54870;BME280;40756;-37.950;145.008;2023-03-11T11:18:32;101205.22;;;18.52;46.28
54870;BME280;40756;-37.950;145.008;2023-03-11T11:21:05;101209.61;;;17.96;47.36
54870;BME280;40756;-37.950;145.008;2023-03-11T11:23:40;101210.83;;;18.52;46.41
54870;BME280;40756;-37.950;145.008;2023-03-11T11:26:18;101212.57;;;18.46;45.97
54870;BME280;40756;-37.950;145.008;2023-03-11T11:29:06;101212.06;;;18.12;46.37
54870;BME280;40756;-37.950;145.008;2023-03-11T11:31:36;101216.33;;;18.13;46.78
54870;BME280;40756;-37.950;145.008;2023-03-11T11:34:25;101212.12;;;17.75;48.05
54870;BME280;40756;-37.950;145.008;2023-03-11T11:36:57;101202.70;;;18.43;46.75
54870;BME280;40756;-37.950;145.008;2023-03-11T11:39:31;101201.71;;;18.46;46.32
54870;BME280;40756;-37.950;145.008;2023-03-11T11:42:01;101201.84;;;18.78;46.06
54870;BME280;40756;-37.950;145.008;2023-03-11T11:44:34;101200.74;;;18.51;45.70
54870;BME280;40756;-37.950;145.008;2023-03-11T11:47:09;101201.71;;;18.75;45.13
54870;BME280;40756;-37.950;145.008;2023-03-11T11:49:47;101199.94;;;18.66;45.98
54870;BME280;40756;-37.950;145.008;2023-03-11T11:52:20;101196.14;;;18.87;44.92
54870;BME280;40756;-37.950;145.008;2023-03-11T11:54:52;101197.80;;;19.11;44.52
54870;BME280;40756;-37.950;145.008;2023-03-11T11:57:23;101196.49;;;18.73;44.96
54870;BME280;40756;-37.950;145.008;2023-03-11T11:59:52;101198.39;;;18.46;45.29
54870;BME280;40756;-37.950;145.008;2023-03-11T12:02:35;101200.29;;;17.90;45.97
54870;BME280;40756;-37.950;145.008;2023-03-11T12:05:14;101197.97;;;18.54;45.17
54870;BME280;40756;-37.950;145.008;2023-03-11T12:07:54;101194.93;;;18.95;44.53
54870;BME280;40756;-37.950;145.008;2023-03-11T12:10:29;101193.15;;;18.39;44.96
54870;BME280;40756;-37.950;145.008;2023-03-11T12:14:08;101191.21;;;18.54;44.96
54870;BME280;40756;-37.950;145.008;2023-03-11T12:16:45;101189.98;;;18.78;45.21
54870;BME280;40756;-37.950;145.008;2023-03-11T12:19:25;101185.81;;;18.35;45.32
54870;BME280;40756;-37.950;145.008;2023-03-11T12:22:46;101185.25;;;18.57;45.13
54870;BME280;40756;-37.950;145.008;2023-03-11T12:25:25;101187.07;;;18.89;44.63
54870;BME280;40756;-37.950;145.008;2023-03-11T12:28:02;101187.50;;;19.02;44.40
54870;BME280;40756;-37.950;145.008;2023-03-11T12:30:37;101187.45;;;19.21;43.81
54870;BME280;40756;-37.950;145.008;2023-03-11T12:33:15;101188.17;;;19.03;43.99
54870;BME280;40756;-37.950;145.008;2023-03-11T12:35:53;101187.02;;;18.87;43.70
54870;BME280;40756;-37.950;145.008;2023-03-11T12:38:29;101183.16;;;18.66;43.91
54870;BME280;40756;-37.950;145.008;2023-03-11T12:41:02;101182.21;;;18.86;44.22
54870;BME280;40756;-37.950;145.008;2023-03-11T12:44:23;101184.70;;;19.21;43.62
54870;BME280;40756;-37.950;145.008;2023-03-11T12:47:35;101184.83;;;19.10;43.89